Harbor Point, Michigan
Current Conditions -  °F | °C
As of 7:35 AM on Monday 26 Jan 2015 (Local Time) from KMGN Reporting Station
Clear Clear  
Wind Chill: -6°   Ceiling: Unl
Heat Index: -6°   Visibility: 10mi
Dew Point: -10°   Wind: 3mph
Humidity: 82%   Direction: 70°ENE
Pressure: 29.99"   Gusts: NA
Location:  45.5213°N, 84.9993°W
Report Text: KMGN 261235Z AUTO 07003KT 10SM CLR M21/M23 A2999 RMK AO2 T12101234
Loading
Personal Weather Stations






























Interactive Weather Map New forecast layout! Learn more

10-Day Weather Forecast

Advertisements
Track Severe Weather on mobile